Fay, OK (73646)

2:54 AM CST on December 22, 2014 (GMT -0600)
Watonga | Change Station
CLOSE
Current Station
Airport
Location: Watonga,
Elevation: 1549 ft
Nearby Weather Stations

Elev 1549 ft 35.86 °N, 98.42 °W | Updated 19 minutes ago

Overcast
Overcast
48 °F
Feels Like 48 °F
N
10
Wind Variable Wind from South

Today
High -- | Low -- °F
--% Chance of Precip.
Yesterday
High -- | Low -- °F
Precip. -- in
7:41 AM 5:25 PM
New Moon, 0% visible
Pressure 29.55 in
Visibility 10.0 miles
Clouds Overcast 1100 ft
Dew Point 48 °F
Humidity 100%
Rainfall 0.00 in
Snow Depth Not available.
UV 0 out of 12
Pollen 8.10 out of 12
Air Quality Not available.
Flu Activity Not available.
METAR KJWG 220835Z AUTO 17009KT 10SM OVC011 09/09 A2955 RMK AO2 T00880088

More Conditions Fewer Conditions

Pressure 29.55 in
Visibility 10.0 miles
Clouds Overcast 1100 ft
Dew Point 48 °F
Humidity 100%
Rainfall 0.00 in
Snow Depth Not available.
UV 0 out of 12
Pollen 8.10 out of 12
Air Quality Not available.
Flu Activity Not available.
METAR KJWG 220835Z AUTO 17009KT 10SM OVC011 09/09 A2955 RMK AO2 T00880088

More Conditions Fewer Conditions

10-Day Weather Forecast

Almanac

Astronomy

Dec. 22, 2014 Rise Set
Actual Time
Civil Twilight
Nautical Twilight
Astronomical Twilight
Moon
Length of Visible Light
Length of Day
Tomorrow will be .
, % of the Moon is Illuminated

Today's Extremes

State Highs State Lows

Community

WunderPhotos

Upload Photos

1,779,580 photos uploaded!

WunderBlogs® & News

Nearby

Air Quality

  Air Quality AQ Index Pollutant
Not available.

Snow Depth

Station Depth Elevation

Earthquake Activity

City Distance Mag. Time & Date
Minimum magnitude displayed is 2.5.

Coastal Water Temperatures

Place Temperature

Nearby Weather Stations